createdAt,value
2023-04-10T00:03:43.333Z,101402.56
2023-04-10T00:08:40.944Z,101520.34
2023-04-10T00:13:34.275Z,101369.09
2023-04-10T00:18:27.440Z,101419.34
2023-04-10T00:23:20.614Z,101519.59
2023-04-10T00:28:16.642Z,101511.94
2023-04-10T00:33:09.889Z,101395.25
2023-04-10T00:38:03.208Z,101449.22
2023-04-10T00:42:56.530Z,101467.50
2023-04-10T00:47:51.304Z,101445.03
2023-04-10T00:52:44.644Z,101444.84
2023-04-10T00:57:37.930Z,101375.09
2023-04-10T01:02:32.466Z,101482.72
2023-04-10T01:07:38.456Z,101440.72
2023-04-10T01:12:48.652Z,101472.09
2023-04-10T01:17:47.619Z,101321.28
2023-04-10T01:23:11.364Z,101431.41
2023-04-10T01:28:26.324Z,101473.94
2023-04-10T01:33:24.097Z,101470.78
2023-04-10T01:38:19.248Z,101457.41
2023-04-10T01:43:14.513Z,101463.44
2023-04-10T01:48:13.778Z,101478.03
2023-04-10T01:53:09.333Z,101470.63
2023-04-10T01:58:02.793Z,101476.53
2023-04-10T02:02:58.680Z,101477.50
2023-04-10T02:08:03.590Z,101442.88
2023-04-10T02:13:02.476Z,101472.63
2023-04-10T02:17:57.776Z,101472.75
2023-04-10T02:22:53.389Z,101418.97
2023-04-10T02:27:46.642Z,101387.78
2023-04-10T02:32:42.124Z,101460.06
2023-04-10T02:37:36.313Z,101415.56
2023-04-10T02:42:30.785Z,101450.88
2023-04-10T02:47:27.335Z,101451.88
2023-04-10T02:52:22.065Z,101415.94
2023-04-10T02:57:15.704Z,101416.22
2023-04-10T03:02:10.561Z,101319.44
2023-04-10T03:07:06.319Z,101352.59
2023-04-10T03:12:05.563Z,101424.22
2023-04-10T03:16:58.937Z,101358.84
2023-04-10T03:21:52.521Z,101451.47
2023-04-10T03:26:45.921Z,101403.91
2023-04-10T03:31:40.826Z,101420.88
2023-04-10T03:36:35.293Z,101457.16
2023-04-10T03:41:28.523Z,101470.78
2023-04-10T03:46:22.905Z,101475.03
2023-04-10T03:51:18.943Z,101477.81
2023-04-10T03:56:12.435Z,101441.66
2023-04-10T04:01:07.001Z,101281.94
2023-04-10T04:06:11.716Z,101353.44
2023-04-10T04:11:21.653Z,101261.97
2023-04-10T04:16:28.345Z,101438.59
2023-04-10T04:21:35.982Z,101452.00
2023-04-10T04:26:50.912Z,101270.78
2023-04-10T04:32:13.722Z,101489.72
2023-04-10T04:37:25.818Z,101451.69
2023-04-10T04:42:44.745Z,101469.31
2023-04-10T04:47:49.430Z,101471.69
2023-04-10T04:52:55.732Z,101434.56
2023-04-10T04:58:09.173Z,101439.41
2023-04-10T05:03:14.320Z,101446.69
2023-04-10T05:08:39.724Z,101466.25
2023-04-10T05:13:51.884Z,101491.22
2023-04-10T05:19:14.617Z,101489.88
2023-04-10T05:24:21.719Z,101498.47
2023-04-10T05:29:36.318Z,101422.22
2023-04-10T05:34:49.779Z,101457.69
2023-04-10T05:39:58.061Z,101507.03
2023-04-10T05:45:10.972Z,101508.06
2023-04-10T05:50:13.279Z,101499.03
2023-04-10T05:55:38.898Z,101404.94
2023-04-10T06:01:02.790Z,101500.59
2023-04-10T06:06:16.569Z,101466.84
2023-04-10T06:11:09.896Z,101502.59
2023-04-10T06:16:05.617Z,101494.50
2023-04-10T06:21:02.114Z,101412.28
2023-04-10T06:25:58.569Z,101470.16
2023-04-10T06:30:52.335Z,101498.97
2023-04-10T06:35:47.503Z,101515.47
2023-04-10T06:40:42.139Z,101452.03
2023-04-10T06:45:35.467Z,101424.50
2023-04-10T06:50:33.297Z,101406.47
2023-04-10T06:55:28.187Z,101469.25
2023-04-10T07:00:22.232Z,101502.44
2023-04-10T07:05:16.083Z,101480.59
2023-04-10T07:10:10.417Z,101494.38
2023-04-10T07:15:05.628Z,101465.78
2023-04-10T07:20:02.071Z,101493.19
2023-04-10T07:24:55.220Z,101491.81
2023-04-10T07:29:48.437Z,101524.59
2023-04-10T07:34:46.111Z,101478.44
2023-04-10T07:39:39.678Z,101509.22
2023-04-10T07:44:32.967Z,101498.38
2023-04-10T07:49:26.488Z,101491.03
2023-04-10T07:54:21.385Z,101498.22
2023-04-10T07:59:14.638Z,101489.84
2023-04-10T08:04:09.601Z,101502.16
2023-04-10T08:09:02.963Z,101405.50
2023-04-10T08:13:58.712Z,101493.00
2023-04-10T08:18:52.726Z,101486.44
2023-04-10T08:23:47.202Z,101478.41
2023-04-10T08:28:40.422Z,101479.59
2023-04-10T08:33:35.105Z,101470.41
2023-04-10T08:38:31.035Z,101438.72
2023-04-10T08:43:24.248Z,101455.88
2023-04-10T08:48:19.849Z,101444.16
2023-04-10T08:53:16.651Z,101431.19
2023-04-10T08:58:11.473Z,101446.06
2023-04-10T09:03:08.560Z,101432.22
2023-04-10T09:08:02.036Z,101407.47
2023-04-10T09:12:59.679Z,101411.19
2023-04-10T09:17:58.931Z,101403.94
2023-04-10T09:22:52.293Z,101395.44
2023-04-10T09:27:45.465Z,101394.16
2023-04-10T09:32:42.422Z,101363.44
2023-04-10T09:37:36.454Z,101355.97
2023-04-10T09:42:34.748Z,101354.56
2023-04-10T09:47:28.460Z,101327.13
2023-04-10T09:52:26.459Z,101354.38
2023-04-10T09:57:21.433Z,101322.44
2023-04-10T10:02:17.068Z,101346.75
2023-04-10T10:07:10.871Z,101337.72
2023-04-10T10:12:08.670Z,101319.25
2023-04-10T10:17:10.496Z,101338.00
2023-04-10T10:22:04.416Z,101333.69
2023-04-10T10:27:04.539Z,101321.88
2023-04-10T10:32:07.914Z,101314.66
2023-04-10T10:37:01.923Z,101305.63
2023-04-10T10:42:03.631Z,101298.22
2023-04-10T10:47:09.026Z,101302.41
2023-04-10T10:52:05.387Z,101273.25
2023-04-10T10:57:01.844Z,101210.75
2023-04-10T11:02:18.283Z,101264.69
2023-04-10T11:07:11.792Z,101281.59
2023-04-10T11:12:07.869Z,101262.75
2023-04-10T11:17:01.049Z,101252.41
2023-04-10T11:22:07.638Z,101230.66
2023-04-10T11:27:01.742Z,101243.06
2023-04-10T11:31:58.252Z,101233.84
2023-04-10T11:36:53.488Z,101230.44
2023-04-10T11:41:49.721Z,101174.94
2023-04-10T11:46:44.406Z,101235.09
2023-04-10T11:51:38.152Z,101195.59
2023-04-10T11:56:31.305Z,101220.63
2023-04-10T12:01:34.896Z,101212.81
2023-04-10T12:06:28.794Z,101187.06
2023-04-10T12:11:23.655Z,101120.53
2023-04-10T12:16:16.886Z,101197.16
2023-04-10T12:21:11.834Z,101158.72
2023-04-10T12:26:13.345Z,101155.06
2023-04-10T12:31:07.496Z,101169.50
2023-04-10T12:36:00.732Z,101113.72
2023-04-10T12:41:02.240Z,101114.78
2023-04-10T12:45:57.063Z,101129.59
2023-04-10T12:50:54.222Z,101068.41
2023-04-10T12:56:03.544Z,101123.41
2023-04-10T13:00:57.531Z,101068.41
2023-04-10T13:05:51.036Z,101140.84
2023-04-10T13:10:44.249Z,101131.50
2023-04-10T13:15:39.107Z,101131.03
2023-04-10T13:20:33.117Z,101102.94
2023-04-10T13:25:27.832Z,101079.47
2023-04-10T13:30:21.057Z,101099.00
2023-04-10T13:35:18.783Z,101114.41
2023-04-10T13:40:12.449Z,101116.84
2023-04-10T13:45:07.471Z,101114.41
2023-04-10T13:50:00.660Z,101113.38
2023-04-10T13:54:55.165Z,101075.41
2023-04-10T13:59:48.385Z,101088.38
2023-04-10T14:04:42.720Z,101088.44
2023-04-10T14:09:36.057Z,101061.66
2023-04-10T14:14:30.850Z,101067.63
2023-04-10T14:19:24.100Z,101054.94
2023-04-10T14:24:17.359Z,101085.34
2023-04-10T14:29:10.980Z,101012.63
2023-04-10T14:34:05.515Z,101054.78
2023-04-10T14:38:58.771Z,101088.38
2023-04-10T14:43:55.165Z,101091.09
2023-04-10T14:48:48.963Z,101065.34
2023-04-10T14:53:45.836Z,101080.25
2023-04-10T14:58:38.937Z,101083.84
2023-04-10T15:03:32.124Z,101078.72
2023-04-10T15:08:25.431Z,101059.75
2023-04-10T15:13:20.077Z,101070.16
2023-04-10T15:18:13.485Z,101037.53
2023-04-10T15:23:06.660Z,101047.78
2023-04-10T15:28:01.376Z,101048.88
2023-04-10T15:32:56.650Z,101027.66
2023-04-10T15:37:49.877Z,101056.59
2023-04-10T15:42:44.988Z,101054.19
2023-04-10T15:47:38.224Z,101047.25
2023-04-10T15:52:33.963Z,101049.72
2023-04-10T15:57:27.090Z,101043.72
2023-04-10T16:02:20.565Z,101036.63
2023-04-10T16:07:13.845Z,100985.41
2023-04-10T16:12:08.553Z,101032.41
2023-04-10T16:17:02.509Z,101033.03
2023-04-10T16:21:57.243Z,101031.19
2023-04-10T16:26:50.554Z,101034.59
2023-04-10T16:31:45.202Z,101035.38
2023-04-10T16:36:38.439Z,101017.81
2023-04-10T16:41:31.884Z,101029.66
2023-04-10T16:46:27.407Z,100933.28
2023-04-10T16:51:22.276Z,100922.84
2023-04-10T16:56:16.073Z,101028.28
2023-04-10T17:01:17.992Z,101051.06
2023-04-10T17:06:11.666Z,100981.59
2023-04-10T17:11:18.800Z,100978.84
2023-04-10T17:16:15.366Z,101051.63
2023-04-10T17:21:12.666Z,100940.31
2023-04-10T17:26:08.378Z,100956.41
2023-04-10T17:31:03.153Z,101057.50
2023-04-10T17:35:59.207Z,100959.75
2023-04-10T17:40:52.577Z,100889.09
2023-04-10T17:45:49.664Z,100998.25
2023-04-10T17:50:44.986Z,100984.19
2023-04-10T17:55:40.040Z,101045.63
2023-04-10T18:00:35.039Z,100911.06
2023-04-10T18:05:30.585Z,100942.72
2023-04-10T18:10:25.585Z,100890.81
2023-04-10T18:15:18.970Z,101075.53
2023-04-10T18:20:12.713Z,100971.84
2023-04-10T18:25:11.652Z,100990.28
2023-04-10T18:30:06.711Z,101086.13
2023-04-10T18:35:03.695Z,101060.53
2023-04-10T18:40:00.961Z,100998.81
2023-04-10T18:45:01.008Z,100949.09
2023-04-10T18:49:54.405Z,100931.13
2023-04-10T18:54:47.746Z,100886.13
2023-04-10T18:59:43.446Z,101088.00
2023-04-10T19:04:38.265Z,101078.25
2023-04-10T19:09:31.617Z,101042.34
2023-04-10T19:14:25.048Z,101009.78
2023-04-10T19:19:20.859Z,101045.53
2023-04-10T19:24:16.651Z,101077.16
2023-04-10T19:29:11.222Z,101047.22
2023-04-10T19:34:09.304Z,101069.09
2023-04-10T19:39:02.576Z,101073.75
2023-04-10T19:43:58.544Z,100987.00
2023-04-10T19:48:54.866Z,101037.03
2023-04-10T19:53:51.588Z,101065.25
2023-04-10T19:58:46.854Z,101076.06
2023-04-10T20:03:46.077Z,100992.22
2023-04-10T20:08:44.629Z,101075.59
2023-04-10T20:13:42.690Z,101053.53
2023-04-10T20:18:39.846Z,101058.97
2023-04-10T20:23:40.217Z,101003.63
2023-04-10T20:28:33.299Z,101054.31
2023-04-10T20:33:26.802Z,100862.13
2023-04-10T20:38:20.400Z,100970.44
2023-04-10T20:43:15.312Z,101045.91
2023-04-10T20:48:10.044Z,101023.53
2023-04-10T20:53:03.670Z,101007.66
2023-04-10T20:57:58.213Z,101001.75
2023-04-10T21:02:53.374Z,101047.69
2023-04-10T21:07:46.988Z,101006.97
2023-04-10T21:12:43.448Z,100845.84
2023-04-10T21:17:37.052Z,100869.19
2023-04-10T21:22:31.721Z,101029.00
2023-04-10T21:27:25.415Z,100829.16
2023-04-10T21:32:18.786Z,100934.22
2023-04-10T21:37:12.072Z,101000.88
2023-04-10T21:42:09.338Z,100911.03
2023-04-10T21:47:02.678Z,100922.84
2023-04-10T21:51:57.734Z,100886.63
2023-04-10T21:56:54.125Z,100894.66
2023-04-10T22:01:48.980Z,100874.84
2023-04-10T22:06:45.548Z,100831.13
2023-04-10T22:11:41.904Z,100984.63
2023-04-10T22:16:35.300Z,100960.63
2023-04-10T22:21:31.796Z,100973.69
2023-04-10T22:26:25.126Z,100975.75
2023-04-10T22:31:20.346Z,100982.66
2023-04-10T22:36:14.261Z,100848.63
2023-04-10T22:41:10.970Z,100876.31
2023-04-10T22:46:04.224Z,100969.69
2023-04-10T22:50:57.465Z,100853.94
2023-04-10T22:55:50.635Z,100829.94
2023-04-10T23:00:45.261Z,100849.25
2023-04-10T23:05:38.512Z,100937.75
2023-04-10T23:10:33.811Z,100945.59
2023-04-10T23:15:27.179Z,100849.66
2023-04-10T23:20:22.159Z,100945.69
2023-04-10T23:25:16.222Z,100940.97
2023-04-10T23:30:10.058Z,100827.06
2023-04-10T23:35:03.270Z,100820.69
2023-04-10T23:39:57.870Z,100878.53
2023-04-10T23:44:51.164Z,100902.94
2023-04-10T23:49:44.414Z,100801.06
2023-04-10T23:54:37.598Z,100904.72
2023-04-10T23:59:32.144Z,100740.34
